Stock Yards, Illinois
Current Conditions -  °F | °C
As of 7:53 PM on Sunday 23 Nov 2014 (Local Time) from KMDW Reporting Station
Light Rain Light Rain  
Wind Chill: 52°   Ceiling: 600
Heat Index: 52°   Visibility: 7mi
Dew Point: 50°   Wind: 6mph
Humidity: 93%   Direction: 130°SE
Pressure: 29.26"   Gusts: NA
Location:  41.8121°N, 87.6542°W
Report Text: KMDW 240153Z 13005KT 7SM -RA OVC006 11/10 A2926 RMK AO2 SLP908 P0010 T01110100
Loading
Personal Weather Stations






























Interactive Weather Map New forecast layout! Learn more

10-Day Weather Forecast

Advertisements
Track Severe Weather on mobile